createdAt,value
2017-12-22T00:02:10.429Z,100155.52
2017-12-22T00:04:40.263Z,100153.55
2017-12-22T00:07:10.730Z,100149.72
2017-12-22T00:09:41.527Z,100146.73
2017-12-22T00:12:11.659Z,100144.48
2017-12-22T00:14:41.551Z,100139.73
2017-12-22T00:17:12.022Z,100141.82
2017-12-22T00:19:41.861Z,100142.57
2017-12-22T00:22:11.181Z,100145.47
2017-12-22T00:24:40.841Z,100140.49
2017-12-22T00:27:10.755Z,100144.34
2017-12-22T00:29:40.615Z,100137.08
2017-12-22T00:32:10.538Z,100142.31
2017-12-22T00:34:40.371Z,100135.33
2017-12-22T00:37:10.237Z,100137.50
2017-12-22T00:39:40.165Z,100134.12
2017-12-22T00:42:10.030Z,100136.36
2017-12-22T00:44:39.933Z,100127.15
2017-12-22T00:47:09.812Z,100138.73
2017-12-22T00:49:39.668Z,100134.97
2017-12-22T00:52:09.495Z,100129.84
2017-12-22T00:54:39.343Z,100131.83
2017-12-22T00:57:09.185Z,100135.56
2017-12-22T00:59:39.142Z,100135.91
2017-12-22T01:02:09.090Z,100135.33
2017-12-22T01:04:38.952Z,100136.18
2017-12-22T01:07:08.802Z,100133.58
2017-12-22T01:09:38.745Z,100132.83
2017-12-22T01:12:08.647Z,100141.29
2017-12-22T01:14:38.492Z,100144.28
2017-12-22T01:17:13.833Z,100142.72
2017-12-22T01:19:43.657Z,100141.81
2017-12-22T01:22:13.905Z,100145.14
2017-12-22T01:24:43.805Z,100149.13
2017-12-22T01:27:13.674Z,100144.89
2017-12-22T01:29:43.496Z,100143.99
2017-12-22T01:32:13.424Z,100138.75
2017-12-22T01:34:43.268Z,100142.43
2017-12-22T01:37:13.386Z,100148.78
2017-12-22T01:39:44.560Z,100146.42
2017-12-22T01:42:17.347Z,100149.41
2017-12-22T01:44:47.177Z,100147.77
2017-12-22T01:47:17.012Z,100150.70
2017-12-22T01:52:47.203Z,100151.27
2017-12-22T01:55:17.089Z,100146.59
2017-12-22T01:57:46.939Z,100145.68
2017-12-22T02:00:16.871Z,100145.79
2017-12-22T02:02:46.452Z,100151.43
2017-12-22T02:05:16.366Z,100150.36
2017-12-22T02:07:46.229Z,100152.61
2017-12-22T02:10:16.089Z,100150.78
2017-12-22T02:12:45.911Z,100148.34
2017-12-22T02:15:15.810Z,100154.84
2017-12-22T02:17:45.636Z,100155.18
2017-12-22T02:20:15.746Z,100155.59
2017-12-22T02:22:45.630Z,100154.17
2017-12-22T02:25:15.504Z,100154.00
2017-12-22T02:27:45.372Z,100153.28
2017-12-22T02:30:15.233Z,100152.84
2017-12-22T02:32:45.106Z,100155.83
2017-12-22T02:35:14.683Z,100155.09
2017-12-22T02:37:44.537Z,100155.92
2017-12-22T02:40:14.357Z,100148.11
2017-12-22T02:42:44.281Z,100147.44
2017-12-22T02:45:14.156Z,100145.12
2017-12-22T02:47:44.007Z,100141.70
2017-12-22T02:50:14.086Z,100142.30
2017-12-22T02:52:43.927Z,100140.86
2017-12-22T02:55:13.870Z,100137.12
2017-12-22T02:57:43.698Z,100136.03
2017-12-22T03:00:13.513Z,100136.86
2017-12-22T03:02:43.457Z,100137.12
2017-12-22T03:05:13.308Z,100135.80
2017-12-22T03:07:43.227Z,100125.63
2017-12-22T03:10:12.805Z,100120.88
2017-12-22T03:12:42.633Z,100123.96
2017-12-22T03:15:12.523Z,100114.98
2017-12-22T03:17:42.378Z,100113.98
2017-12-22T03:20:12.277Z,100110.22
2017-12-22T03:22:42.161Z,100119.63
2017-12-22T03:25:12.076Z,100121.03
2017-12-22T03:27:41.883Z,100121.80
2017-12-22T03:30:11.758Z,100129.38
2017-12-22T03:32:41.663Z,100129.63
2017-12-22T03:35:11.463Z,100121.45
2017-12-22T03:37:41.301Z,100125.14
2017-12-22T03:40:11.168Z,100117.80
2017-12-22T03:42:40.997Z,100116.73
2017-12-22T03:45:10.864Z,100117.95
2017-12-22T03:47:40.878Z,100108.73
2017-12-22T03:50:10.494Z,100101.57
2017-12-22T03:52:40.416Z,100109.23
2017-12-22T03:55:10.296Z,100100.81
2017-12-22T03:57:40.182Z,100100.55
2017-12-22T04:00:10.111Z,100098.56
2017-12-22T04:02:39.996Z,100088.55
2017-12-22T04:05:09.908Z,100089.31
2017-12-22T04:07:39.805Z,100081.89
2017-12-22T04:10:09.811Z,100084.33
2017-12-22T04:12:39.624Z,100080.48
2017-12-22T04:15:09.500Z,100078.58
2017-12-22T04:17:39.312Z,100076.06
2017-12-22T04:20:09.210Z,100078.73
2017-12-22T04:22:39.034Z,100075.08
2017-12-22T04:25:08.895Z,100077.67
2017-12-22T04:27:38.730Z,100075.84
2017-12-22T04:30:08.561Z,100071.02
2017-12-22T04:32:38.411Z,100064.98
2017-12-22T04:35:08.040Z,100066.40
2017-12-22T04:37:37.894Z,100065.74
2017-12-22T04:40:07.791Z,100067.23
2017-12-22T04:42:37.626Z,100063.42
2017-12-22T04:45:07.437Z,100061.83
2017-12-22T04:47:37.072Z,100062.04
2017-12-22T04:50:06.915Z,100057.80
2017-12-22T04:52:36.737Z,100056.55
2017-12-22T04:55:06.616Z,100056.55
2017-12-22T04:57:36.449Z,100047.12
2017-12-22T05:00:06.334Z,100047.06
2017-12-22T05:02:35.949Z,100044.51
2017-12-22T05:05:05.851Z,100048.59
2017-12-22T05:07:35.700Z,100043.90
2017-12-22T05:10:05.687Z,100038.74
2017-12-22T05:12:35.512Z,100035.06
2017-12-22T05:15:05.329Z,100035.69
2017-12-22T05:17:35.203Z,100043.12
2017-12-22T05:20:05.152Z,100039.44
2017-12-22T05:22:34.992Z,100046.05
2017-12-22T05:25:04.807Z,100048.72
2017-12-22T05:27:34.854Z,100043.95
2017-12-22T05:32:43.055Z,100038.30
2017-12-22T05:35:12.913Z,100036.69
2017-12-22T05:37:42.798Z,100039.98
2017-12-22T05:40:12.621Z,100043.99
2017-12-22T05:42:42.537Z,100040.98
2017-12-22T05:45:12.591Z,100042.56
2017-12-22T05:47:42.569Z,100042.08
2017-12-22T05:50:12.423Z,100038.41
2017-12-22T05:52:42.298Z,100039.49
2017-12-22T05:55:12.178Z,100048.22
2017-12-22T05:57:42.049Z,100054.48
2017-12-22T06:00:11.976Z,100051.06
2017-12-22T06:02:41.799Z,100053.09
2017-12-22T06:05:15.270Z,100049.78
2017-12-22T06:07:45.104Z,100050.80
2017-12-22T06:10:15.040Z,100055.38
2017-12-22T06:12:45.026Z,100062.31
2017-12-22T06:15:14.990Z,100057.33
2017-12-22T06:17:44.877Z,100060.27
2017-12-22T06:20:14.840Z,100061.75
2017-12-22T06:22:45.035Z,100068.22
2017-12-22T06:25:15.030Z,100066.54
2017-12-22T06:27:45.138Z,100075.78
2017-12-22T06:30:14.937Z,100067.59
2017-12-22T06:32:44.920Z,100061.33
2017-12-22T06:35:14.601Z,100056.63
2017-12-22T06:37:44.623Z,100062.13
2017-12-22T06:40:14.562Z,100060.32
2017-12-22T06:42:44.444Z,100063.05
2017-12-22T06:45:14.397Z,100071.09
2017-12-22T06:47:44.254Z,100069.37
2017-12-22T06:50:14.164Z,100059.97
2017-12-22T06:52:44.016Z,100066.31
2017-12-22T06:55:13.890Z,100066.49
2017-12-22T06:57:43.859Z,100060.86
2017-12-22T07:00:13.747Z,100063.45
2017-12-22T07:02:43.752Z,100067.34
2017-12-22T07:05:13.809Z,100063.22
2017-12-22T07:07:44.644Z,100065.78
2017-12-22T07:10:23.145Z,100065.14
2017-12-22T07:12:53.652Z,100065.45
2017-12-22T07:15:23.471Z,100065.33
2017-12-22T07:17:53.891Z,100059.80
2017-12-22T07:20:25.047Z,100061.64
2017-12-22T07:22:55.829Z,100063.59
2017-12-22T07:25:25.814Z,100060.02
2017-12-22T07:27:55.790Z,100069.20
2017-12-22T07:30:25.862Z,100067.52
2017-12-22T07:32:56.540Z,100072.60
2017-12-22T07:35:26.652Z,100068.71
2017-12-22T07:37:56.614Z,100067.63
2017-12-22T07:40:26.579Z,100071.66
2017-12-22T07:42:56.546Z,100066.57
2017-12-22T07:45:26.646Z,100074.08
2017-12-22T07:47:56.462Z,100071.05
2017-12-22T07:50:26.253Z,100072.77
2017-12-22T07:52:56.111Z,100077.31
2017-12-22T07:55:26.005Z,100080.59
2017-12-22T07:57:56.055Z,100073.66
2017-12-22T08:00:26.324Z,100084.04
2017-12-22T08:02:56.345Z,100083.11
2017-12-22T08:05:26.573Z,100077.33
2017-12-22T08:07:56.929Z,100082.31
2017-12-22T08:10:26.981Z,100082.48
2017-12-22T08:13:00.721Z,100079.72
2017-12-22T08:15:33.599Z,100076.91
2017-12-22T08:18:04.543Z,100085.44
2017-12-22T08:20:34.544Z,100087.58
2017-12-22T08:23:04.877Z,100084.77
2017-12-22T08:25:34.738Z,100094.01
2017-12-22T08:28:05.296Z,100097.55
2017-12-22T08:30:35.565Z,100092.69
2017-12-22T08:33:07.359Z,100090.88
2017-12-22T08:35:37.880Z,100102.00
2017-12-22T08:38:09.211Z,100099.12
2017-12-22T08:40:40.302Z,100094.81
2017-12-22T08:43:10.585Z,100095.11
2017-12-22T08:45:41.769Z,100098.75
2017-12-22T08:48:14.379Z,100093.27
2017-12-22T08:50:44.611Z,100092.61
2017-12-22T08:53:15.159Z,100100.14
2017-12-22T08:55:46.025Z,100099.59
2017-12-22T08:58:15.778Z,100100.20
2017-12-22T09:00:46.249Z,100099.67
2017-12-22T09:03:16.256Z,100099.59
2017-12-22T09:05:47.184Z,100102.78
2017-12-22T09:08:17.808Z,100101.83
2017-12-22T09:10:49.160Z,100100.22
2017-12-22T09:13:21.203Z,100095.02
2017-12-22T09:15:54.211Z,100096.80
2017-12-22T09:18:24.436Z,100099.44
2017-12-22T09:20:54.441Z,100095.76
2017-12-22T09:23:24.659Z,100098.60
2017-12-22T09:25:54.884Z,100096.01
2017-12-22T09:28:25.377Z,100094.80
2017-12-22T09:30:56.849Z,100091.92
2017-12-22T09:33:27.084Z,100082.55
2017-12-22T09:35:57.680Z,100085.27
2017-12-22T09:38:27.835Z,100081.13
2017-12-22T09:43:33.766Z,100069.08
2017-12-22T09:46:04.220Z,100065.64
2017-12-22T09:48:35.901Z,100060.86
2017-12-22T09:51:06.300Z,100059.09
2017-12-22T09:53:36.688Z,100052.72
2017-12-22T09:56:07.148Z,100045.83
2017-12-22T09:58:37.410Z,100046.05
2017-12-22T10:03:42.754Z,100044.63
2017-12-22T10:06:18.104Z,100041.91
2017-12-22T10:08:48.318Z,100041.58
2017-12-22T10:11:19.234Z,100032.88
2017-12-22T10:13:49.233Z,100038.62
2017-12-22T10:16:19.093Z,100035.56
2017-12-22T10:18:48.977Z,100035.22
2017-12-22T10:21:18.986Z,100041.88
2017-12-22T10:23:48.838Z,100044.10
2017-12-22T10:26:19.013Z,100029.30
2017-12-22T10:28:49.134Z,100027.47
2017-12-22T10:31:21.067Z,100020.15
2017-12-22T10:33:53.045Z,100030.20
2017-12-22T10:36:22.997Z,100032.05
2017-12-22T10:38:52.794Z,100026.66
2017-12-22T10:41:23.429Z,100025.29
2017-12-22T10:44:01.892Z,100020.43
2017-12-22T10:46:32.019Z,100017.63
2017-12-22T10:49:02.276Z,100016.79
2017-12-22T10:51:32.517Z,100014.20
2017-12-22T10:54:03.105Z,100010.58
2017-12-22T10:56:33.101Z,100003.97
2017-12-22T10:59:02.961Z,100004.91
2017-12-22T11:01:35.077Z,100000.52
2017-12-22T11:04:05.737Z,99994.45
2017-12-22T11:06:36.205Z,99991.58
2017-12-22T11:09:06.531Z,99989.44
2017-12-22T11:11:36.567Z,99981.84
2017-12-22T11:14:06.414Z,99987.88
2017-12-22T11:16:37.271Z,99981.67
2017-12-22T11:19:08.024Z,99982.23
2017-12-22T11:21:38.334Z,99982.41
2017-12-22T11:24:08.814Z,99975.00
2017-12-22T11:26:39.842Z,99973.26
2017-12-22T11:29:09.885Z,99972.95
2017-12-22T11:31:39.956Z,99975.38
2017-12-22T11:34:10.044Z,99972.28
2017-12-22T11:36:40.946Z,99965.22
2017-12-22T11:39:11.481Z,99969.14
2017-12-22T11:41:42.116Z,99974.37
2017-12-22T11:44:12.347Z,99966.19
2017-12-22T11:46:42.172Z,99969.84
2017-12-22T11:49:12.338Z,99966.39
2017-12-22T11:51:42.254Z,99960.78
2017-12-22T11:54:12.685Z,99966.62
2017-12-22T11:56:42.517Z,99963.19
2017-12-22T11:59:12.677Z,99956.33
2017-12-22T12:01:43.166Z,99954.02
2017-12-22T12:04:13.298Z,99947.17
2017-12-22T12:06:43.560Z,99948.64
2017-12-22T12:09:13.561Z,99944.20
2017-12-22T12:11:43.706Z,99948.61
2017-12-22T12:14:14.105Z,99941.92
2017-12-22T12:16:44.215Z,99936.59
2017-12-22T12:19:14.453Z,99934.84
2017-12-22T12:21:44.625Z,99930.08
2017-12-22T12:24:15.417Z,99929.09
2017-12-22T12:26:45.237Z,99929.59
2017-12-22T12:29:15.210Z,99927.73
2017-12-22T12:31:45.164Z,99925.59
2017-12-22T12:34:15.332Z,99916.64
2017-12-22T12:36:45.528Z,99924.77
2017-12-22T12:39:15.509Z,99923.03
2017-12-22T12:41:45.502Z,99919.95
2017-12-22T12:44:17.242Z,99908.36
2017-12-22T12:46:46.906Z,99914.19
2017-12-22T12:49:16.835Z,99911.45
2017-12-22T12:51:47.036Z,99911.15
2017-12-22T12:54:16.975Z,99912.70
2017-12-22T12:56:47.478Z,99912.48
2017-12-22T12:59:17.800Z,99920.76
2017-12-22T13:01:48.145Z,99919.28
2017-12-22T13:04:19.646Z,99924.92
2017-12-22T13:06:50.034Z,99929.66
2017-12-22T13:09:20.049Z,99936.28
2017-12-22T13:11:50.752Z,99940.52
2017-12-22T13:14:20.790Z,99937.32
2017-12-22T13:16:50.837Z,99937.98
2017-12-22T13:19:21.056Z,99946.10
2017-12-22T13:21:50.968Z,99936.28
2017-12-22T13:24:21.138Z,99948.05
2017-12-22T13:26:52.247Z,99943.45
2017-12-22T13:29:22.156Z,99941.55
2017-12-22T13:31:52.350Z,99942.55
2017-12-22T13:34:22.650Z,99946.27
2017-12-22T13:36:53.155Z,99948.05
2017-12-22T13:39:22.754Z,99949.70
2017-12-22T13:41:53.269Z,99953.11
2017-12-22T13:44:23.258Z,99958.33
2017-12-22T13:50:00.611Z,99944.34
2017-12-22T13:55:05.497Z,99938.02
2017-12-22T13:57:37.238Z,99939.20
2017-12-22T14:00:07.198Z,99937.03
2017-12-22T14:02:37.458Z,99938.16
2017-12-22T14:05:07.389Z,99937.52
2017-12-22T14:07:37.408Z,99935.98
2017-12-22T14:10:07.419Z,99936.68
2017-12-22T14:12:37.444Z,99935.80
2017-12-22T14:15:10.173Z,99930.16
2017-12-22T14:17:40.364Z,99934.38
2017-12-22T14:20:10.633Z,99935.19
2017-12-22T14:22:40.474Z,99935.48
2017-12-22T14:25:10.293Z,99933.37
2017-12-22T14:27:40.149Z,99939.47
2017-12-22T14:30:10.194Z,99945.02
2017-12-22T14:32:40.057Z,99947.08
2017-12-22T14:35:10.489Z,99937.38
2017-12-22T14:37:40.279Z,99946.01
2017-12-22T14:40:11.568Z,99951.45
2017-12-22T14:42:41.399Z,99947.73
2017-12-22T14:45:11.275Z,99951.30
2017-12-22T14:47:41.101Z,99952.47
2017-12-22T14:50:11.166Z,99947.34
2017-12-22T14:52:41.037Z,99941.78
2017-12-22T14:55:10.867Z,99932.33
2017-12-22T14:57:40.766Z,99935.77
2017-12-22T15:00:10.678Z,99925.92
2017-12-22T15:02:40.506Z,99929.97
2017-12-22T15:05:10.664Z,99937.63
2017-12-22T15:07:40.551Z,99936.81
2017-12-22T15:10:10.495Z,99945.36
2017-12-22T15:12:40.601Z,99937.34
2017-12-22T15:15:10.417Z,99943.02
2017-12-22T15:17:40.376Z,99949.25
2017-12-22T15:20:10.331Z,99940.62
2017-12-22T15:22:40.397Z,99938.53
2017-12-22T15:25:10.471Z,99935.55
2017-12-22T15:27:40.271Z,99922.16
2017-12-22T15:30:10.253Z,99938.52
2017-12-22T15:32:40.103Z,99936.86
2017-12-22T15:35:10.165Z,99936.48
2017-12-22T15:37:40.037Z,99942.08
2017-12-22T15:40:10.006Z,99943.95
2017-12-22T15:42:41.043Z,99932.07
2017-12-22T15:45:14.773Z,99941.64
2017-12-22T15:47:44.525Z,99946.99
2017-12-22T15:50:14.491Z,99939.24
2017-12-22T15:52:44.330Z,99944.77
2017-12-22T15:55:14.177Z,99952.15
2017-12-22T15:57:44.006Z,99951.70
2017-12-22T16:00:13.816Z,99948.97
2017-12-22T16:02:43.603Z,99957.99
2017-12-22T16:05:13.620Z,99957.68
2017-12-22T16:07:43.443Z,99942.05
2017-12-22T16:10:13.233Z,99945.63
2017-12-22T16:12:43.038Z,99938.02
2017-12-22T16:15:12.840Z,99938.56
2017-12-22T16:17:42.624Z,99946.18
2017-12-22T16:20:12.443Z,99954.73
2017-12-22T16:22:42.216Z,99963.70
2017-12-22T16:25:12.011Z,99962.61
2017-12-22T16:27:41.808Z,99960.06
2017-12-22T16:30:11.627Z,99961.36
2017-12-22T16:32:41.412Z,99975.51
2017-12-22T16:35:11.207Z,99973.05
2017-12-22T16:37:40.994Z,99970.61
2017-12-22T16:40:10.809Z,99974.34
2017-12-22T16:42:40.617Z,99975.63
2017-12-22T16:45:10.435Z,99967.06
2017-12-22T16:47:40.243Z,99964.56
2017-12-22T16:50:10.031Z,99965.66
2017-12-22T16:52:39.818Z,99960.37
2017-12-22T16:55:13.323Z,99969.65
2017-12-22T16:57:43.136Z,99978.03
2017-12-22T17:00:13.103Z,99982.17
2017-12-22T17:02:42.899Z,99979.51
2017-12-22T17:05:13.442Z,99978.61
2017-12-22T17:07:43.619Z,99963.13
2017-12-22T17:10:13.425Z,99955.40
2017-12-22T17:12:43.275Z,99958.19
2017-12-22T17:15:13.084Z,99958.09
2017-12-22T17:17:42.861Z,99963.77
2017-12-22T17:20:12.697Z,99969.42
2017-12-22T17:22:42.466Z,99974.91
2017-12-22T17:25:12.475Z,99982.77
2017-12-22T17:27:42.241Z,99982.39
2017-12-22T17:30:12.081Z,99980.73
2017-12-22T17:32:42.014Z,99985.48
2017-12-22T17:35:14.672Z,99979.78
2017-12-22T17:37:47.139Z,99984.98
2017-12-22T17:40:17.559Z,99991.57
2017-12-22T17:42:47.952Z,99988.06
2017-12-22T17:45:18.712Z,99985.53
2017-12-22T17:47:49.273Z,99993.16
2017-12-22T17:50:20.083Z,100003.28
2017-12-22T17:52:50.161Z,100006.36
2017-12-22T17:55:20.098Z,99998.90
2017-12-22T17:57:50.312Z,99996.01
2017-12-22T18:00:20.779Z,99992.42
2017-12-22T18:02:51.734Z,99988.44
2017-12-22T18:05:22.012Z,99994.25
2017-12-22T18:07:51.914Z,99985.56
2017-12-22T18:10:23.058Z,99985.73
2017-12-22T18:12:53.395Z,99986.11
2017-12-22T18:15:23.918Z,99985.43
2017-12-22T18:17:54.056Z,99979.75
2017-12-22T18:20:23.654Z,99984.99
2017-12-22T18:22:53.964Z,99992.92
2017-12-22T18:25:24.197Z,99997.27
2017-12-22T18:27:54.285Z,99996.61
2017-12-22T18:30:24.151Z,100006.45
2017-12-22T18:32:53.963Z,100010.81
2017-12-22T18:35:24.172Z,100001.12
2017-12-22T18:37:54.394Z,100001.08
2017-12-22T18:40:25.050Z,100013.73
2017-12-22T18:42:54.918Z,100010.22
2017-12-22T18:45:25.064Z,100010.52
2017-12-22T18:47:55.652Z,100005.84
2017-12-22T18:50:26.669Z,100024.02
2017-12-22T18:52:57.049Z,100022.02
2017-12-22T18:55:28.125Z,100026.61
2017-12-22T18:57:59.033Z,100027.62
2017-12-22T19:00:29.230Z,100026.02
2017-12-22T19:03:00.042Z,100026.64
2017-12-22T19:05:30.389Z,100022.28
2017-12-22T19:08:00.713Z,100025.80
2017-12-22T19:10:31.318Z,100030.09
2017-12-22T19:13:01.997Z,100036.83
2017-12-22T19:15:31.998Z,100040.47
2017-12-22T19:18:02.642Z,100050.31
2017-12-22T19:20:32.629Z,100059.92
2017-12-22T19:23:02.772Z,100057.77
2017-12-22T19:25:32.853Z,100052.30
2017-12-22T19:28:02.971Z,100054.77
2017-12-22T19:30:33.195Z,100064.06
2017-12-22T19:33:03.676Z,100071.88
2017-12-22T19:35:33.819Z,100078.19
2017-12-22T19:38:03.630Z,100080.86
2017-12-22T19:40:33.916Z,100084.37
2017-12-22T19:43:03.984Z,100080.48
2017-12-22T19:45:34.024Z,100092.08
2017-12-22T19:48:04.056Z,100093.86
2017-12-22T19:50:34.342Z,100089.97
2017-12-22T19:53:04.432Z,100085.28
2017-12-22T19:55:34.779Z,100100.09
2017-12-22T19:58:04.862Z,100103.42
2017-12-22T20:00:34.907Z,100099.55
2017-12-22T20:03:06.390Z,100094.59
2017-12-22T20:05:37.471Z,100101.36
2017-12-22T20:08:09.195Z,100103.00
2017-12-22T20:14:14.148Z,100092.91
2017-12-22T20:16:45.557Z,100108.98
2017-12-22T20:19:16.927Z,100096.22
2017-12-22T20:21:48.654Z,100098.26
2017-12-22T20:24:19.523Z,100098.34
2017-12-22T20:26:50.036Z,100104.17
2017-12-22T20:29:22.140Z,100097.20
2017-12-22T20:31:52.908Z,100093.97
2017-12-22T20:34:24.956Z,100097.66
2017-12-22T20:36:57.055Z,100101.23
2017-12-22T20:39:28.399Z,100102.72
2017-12-22T20:41:59.826Z,100110.04
2017-12-22T20:44:32.087Z,100113.49
2017-12-22T20:47:03.938Z,100108.11
2017-12-22T20:49:35.075Z,100113.66
2017-12-22T20:52:06.998Z,100124.34
2017-12-22T20:54:39.492Z,100115.52
2017-12-22T20:57:11.192Z,100117.16
2017-12-22T20:59:42.588Z,100114.08
2017-12-22T21:02:17.806Z,100119.52
2017-12-22T21:04:50.458Z,100124.06
2017-12-22T21:07:26.232Z,100125.98
2017-12-22T21:09:58.247Z,100131.70
2017-12-22T21:12:28.760Z,100138.80
2017-12-22T21:15:00.148Z,100133.28
2017-12-22T21:17:30.635Z,100126.83
2017-12-22T21:20:01.158Z,100131.42
2017-12-22T21:22:31.375Z,100130.12
2017-12-22T21:25:01.858Z,100131.00
2017-12-22T21:27:32.199Z,100128.45
2017-12-22T21:30:02.360Z,100131.77
2017-12-22T21:32:32.612Z,100133.06
2017-12-22T21:35:02.568Z,100133.00
2017-12-22T21:37:32.965Z,100142.02
2017-12-22T21:40:03.364Z,100144.98
2017-12-22T21:42:33.569Z,100143.75
2017-12-22T21:45:03.674Z,100148.27
2017-12-22T21:47:33.728Z,100150.38
2017-12-22T21:50:03.818Z,100150.34
2017-12-22T21:52:33.815Z,100151.77
2017-12-22T21:55:03.905Z,100169.09
2017-12-22T21:57:35.293Z,100164.75
2017-12-22T22:00:05.502Z,100158.19
2017-12-22T22:02:35.632Z,100169.77
2017-12-22T22:05:05.724Z,100158.34
2017-12-22T22:07:36.180Z,100164.33
2017-12-22T22:10:06.287Z,100164.94
2017-12-22T22:12:36.561Z,100160.09
2017-12-22T22:15:06.628Z,100158.45
2017-12-22T22:17:36.331Z,100155.52
2017-12-22T22:20:06.864Z,100148.78
2017-12-22T22:22:37.100Z,100145.05
2017-12-22T22:25:08.836Z,100139.95
2017-12-22T22:27:38.805Z,100146.45
2017-12-22T22:30:08.704Z,100147.37
2017-12-22T22:32:38.700Z,100144.79
2017-12-22T22:35:08.675Z,100139.61
2017-12-22T22:37:38.608Z,100136.38
2017-12-22T22:40:08.537Z,100131.62
2017-12-22T22:42:38.366Z,100138.78
2017-12-22T22:45:08.029Z,100128.03
2017-12-22T22:47:38.130Z,100138.00
2017-12-22T22:50:08.008Z,100130.98
2017-12-22T22:52:37.905Z,100134.97
2017-12-22T22:55:08.002Z,100134.04
2017-12-22T22:57:38.219Z,100139.17
2017-12-22T23:00:17.183Z,100146.22
2017-12-22T23:02:46.920Z,100146.47
2017-12-22T23:05:28.605Z,100149.45
2017-12-22T23:08:01.011Z,100159.19
2017-12-22T23:10:32.865Z,100161.14
2017-12-22T23:13:02.930Z,100163.70
2017-12-22T23:15:33.399Z,100151.08
2017-12-22T23:18:04.215Z,100154.61
2017-12-22T23:20:34.624Z,100166.78
2017-12-22T23:23:04.567Z,100155.33
2017-12-22T23:25:34.460Z,100159.33
2017-12-22T23:28:04.290Z,100152.59
2017-12-22T23:30:34.119Z,100144.86
2017-12-22T23:33:04.080Z,100150.16
2017-12-22T23:35:34.340Z,100158.42
2017-12-22T23:38:04.213Z,100163.95
2017-12-22T23:40:38.295Z,100151.05
2017-12-22T23:43:08.148Z,100159.96
2017-12-22T23:45:37.991Z,100158.78
2017-12-22T23:48:07.822Z,100158.89
2017-12-22T23:50:37.694Z,100152.99
2017-12-22T23:53:07.542Z,100155.81
2017-12-22T23:55:37.361Z,100150.78
2017-12-22T23:58:07.656Z,100155.94
